Time;durP1;ratioP1;P1;durP2;ratioP2;P2;SDS_P1;SDS_P2;PMS_P1;PMS_P2;Temp;Humidity;BMP_temperature;BMP_pressure;BME280_temperature;BME280_humidity;BME280_pressure;Samples;Min_cycle;Max_cycle;Signal;HPM_P1;HPM_P2
2021/10/09 00:00:37;;;;;;;26.02;15.18;;;15.60;88.50;;;;;;5091952;28;20023;-71
2021/10/09 00:03:02;;;;;;;25.52;15.40;;;15.50;88.50;;;;;;5090850;28;20024;-71
2021/10/09 00:05:28;;;;;;;29.95;14.82;;;15.50;88.50;;;;;;5082149;28;20039;-71
2021/10/09 00:07:53;;;;;;;26.33;16.77;;;15.50;88.60;;;;;;5079854;28;20068;-72
2021/10/09 00:10:30;;;;;;;24.10;15.25;;;15.50;88.60;;;;;;5083060;28;20024;-71
2021/10/09 00:12:56;;;;;;;28.27;14.90;;;15.50;88.60;;;;;;5086113;28;20051;-71
2021/10/09 00:15:22;;;;;;;25.83;15.35;;;15.40;88.50;;;;;;5082080;28;20454;-71
2021/10/09 00:17:48;;;;;;;29.65;16.40;;;15.50;88.60;;;;;;5092384;28;20043;-71
2021/10/09 00:20:14;;;;;;;23.63;14.30;;;15.50;88.70;;;;;;5094417;28;20019;-70
2021/10/09 00:22:40;;;;;;;28.45;16.23;;;15.40;88.70;;;;;;5087921;28;20039;-71
2021/10/09 00:25:07;;;;;;;27.42;15.43;;;15.40;88.70;;;;;;5082906;28;20048;-71
2021/10/09 00:27:32;;;;;;;29.67;16.48;;;15.40;88.70;;;;;;5091476;28;20123;-71
2021/10/09 00:29:58;;;;;;;26.95;16.08;;;15.40;88.80;;;;;;5090363;28;20110;-71
2021/10/09 00:32:24;;;;;;;28.45;16.23;;;15.40;88.90;;;;;;5086043;28;20055;-71
2021/10/09 00:34:49;;;;;;;30.95;17.10;;;15.40;88.80;;;;;;5079552;28;20032;-71
2021/10/09 00:37:15;;;;;;;28.42;15.73;;;15.40;88.80;;;;;;5084592;28;20040;-71
2021/10/09 00:39:41;;;;;;;26.85;15.30;;;15.30;88.70;;;;;;5086591;28;20036;-70
2021/10/09 00:42:09;;;;;;;26.95;16.08;;;15.30;88.70;;;;;;5072805;28;20102;-70
2021/10/09 00:44:36;;;;;;;25.70;14.57;;;15.30;88.70;;;;;;5083479;28;20025;-71
2021/10/09 00:47:03;;;;;;;26.17;15.70;;;15.30;88.70;;;;;;5087853;28;20051;-71
2021/10/09 00:49:30;;;;;;;26.83;15.90;;;15.30;88.70;;;;;;5085405;28;20106;-71
2021/10/09 00:51:58;;;;;;;27.30;15.38;;;15.30;88.70;;;;;;5089298;28;20012;-71
2021/10/09 00:54:26;;;;;;;29.67;16.15;;;15.30;88.70;;;;;;5083264;28;20088;-71
2021/10/09 00:56:55;;;;;;;27.70;15.20;;;15.20;88.70;;;;;;5074596;28;20375;-71
2021/10/09 00:59:25;;;;;;;27.02;15.35;;;15.20;88.60;;;;;;5084817;28;20482;-71
2021/10/09 01:01:52;;;;;;;31.20;16.70;;;15.20;88.60;;;;;;5080589;28;20028;-70
2021/10/09 01:04:18;;;;;;;29.55;15.88;;;15.20;88.70;;;;;;5083452;28;20031;-71
2021/10/09 01:06:45;;;;;;;27.30;16.42;;;15.20;88.80;;;;;;5080396;28;20028;-70
2021/10/09 01:09:14;;;;;;;27.23;15.02;;;15.10;88.80;;;;;;5084867;28;20503;-71
2021/10/09 01:11:40;;;;;;;28.75;15.57;;;15.20;89.00;;;;;;5084914;28;20487;-71
2021/10/09 01:14:07;;;;;;;26.80;15.90;;;15.10;88.90;;;;;;5076138;28;20020;-71
2021/10/09 01:16:33;;;;;;;31.75;16.17;;;15.10;89.00;;;;;;5073785;28;20033;-71
2021/10/09 01:19:00;;;;;;;27.83;17.13;;;15.10;89.00;;;;;;5079286;28;20024;-71
2021/10/09 01:21:38;;;;;;;29.52;16.08;;;15.10;89.00;;;;;;5100157;28;20036;-71
2021/10/09 01:24:04;;;;;;;31.83;16.70;;;15.10;89.10;;;;;;5088553;28;20475;-70
2021/10/09 01:26:30;;;;;;;30.33;16.83;;;15.00;89.40;;;;;;5085116;28;20032;-71
2021/10/09 01:28:58;;;;;;;28.20;15.38;;;15.00;88.90;;;;;;5088914;28;20020;-71
2021/10/09 01:31:23;;;;;;;23.63;12.65;;;15.00;88.70;;;;;;5090096;28;20118;-71
2021/10/09 01:33:50;;;;;;;19.98;12.95;;;15.00;88.60;;;;;;5075054;28;20031;-71
2021/10/09 01:36:20;;;;;;;29.80;14.65;;;15.00;88.30;;;;;;5083825;28;20035;-71
2021/10/09 01:38:49;;;;;;;31.40;12.75;;;14.90;88.20;;;;;;5072133;28;20399;-71
2021/10/09 01:41:17;;;;;;;56.78;15.13;;;14.90;88.20;;;;;;5090702;28;20403;-71
2021/10/09 01:43:44;;;;;;;299.98;16.85;;;14.90;88.10;;;;;;5077958;28;20024;-71
2021/10/09 01:46:09;;;;;;;85.28;13.18;;;14.90;88.10;;;;;;5076935;28;20060;-71
2021/10/09 01:48:38;;;;;;;103.60;14.80;;;14.90;87.90;;;;;;5089946;28;20031;-71
2021/10/09 01:51:06;;;;;;;208.45;16.00;;;14.90;87.80;;;;;;5071814;28;20032;-71
2021/10/09 01:53:32;;;;;;;91.47;14.88;;;14.80;87.70;;;;;;5077944;28;20107;-71
2021/10/09 01:55:58;;;;;;;77.60;15.20;;;14.80;87.80;;;;;;5076539;28;20032;-71
2021/10/09 01:58:24;;;;;;;71.90;14.55;;;14.70;87.80;;;;;;5085211;28;20029;-70
2021/10/09 02:00:50;;;;;;;72.50;15.13;;;14.80;88.10;;;;;;5070939;28;20025;-71
2021/10/09 02:03:19;;;;;;;45.22;14.77;;;14.70;88.10;;;;;;5089559;28;20084;-71
2021/10/09 02:05:44;;;;;;;75.65;14.27;;;14.70;88.30;;;;;;5089536;28;20024;-71
2021/10/09 02:08:10;;;;;;;116.20;15.02;;;14.60;88.40;;;;;;5072730;28;20399;-71
2021/10/09 02:16:14;;;;;;;31.02;16.80;;;14.60;88.80;;;;;;5076788;28;20021;-71
2021/10/09 02:18:51;;;;;;;32.40;15.68;;;14.50;89.00;;;;;;5088480;28;20024;-71
2021/10/09 02:26:48;;;;;;;26.45;15.02;;;14.50;89.30;;;;;;5077118;28;20060;-71
2021/10/09 02:29:15;;;;;;;28.33;15.38;;;14.50;89.20;;;;;;5083891;28;20025;-71
2021/10/09 02:31:41;;;;;;;33.25;17.42;;;14.40;89.20;;;;;;5079469;28;20032;-71
2021/10/09 02:34:12;;;;;;;35.05;16.63;;;14.50;89.50;;;;;;5081797;28;20028;-71
2021/10/09 02:36:41;;;;;;;38.20;16.60;;;14.40;89.50;;;;;;5080522;28;20471;-71
2021/10/09 02:39:08;;;;;;;64.95;17.40;;;14.40;89.60;;;;;;5089396;28;20051;-70
2021/10/09 02:41:34;;;;;;;66.65;15.93;;;14.40;89.80;;;;;;5079506;28;20098;-71
2021/10/09 02:44:00;;;;;;;34.13;18.35;;;14.40;90.00;;;;;;5083157;28;20127;-71
2021/10/09 02:46:28;;;;;;;51.65;19.40;;;14.40;90.00;;;;;;5073559;28;20044;-71
2021/10/09 02:48:54;;;;;;;89.28;19.98;;;14.40;90.10;;;;;;5072967;28;20395;-71
2021/10/09 02:51:19;;;;;;;103.53;19.67;;;14.40;90.20;;;;;;5102675;28;20028;-71
2021/10/09 02:53:45;;;;;;;198.25;21.20;;;14.40;90.20;;;;;;5092433;28;20031;-71
2021/10/09 02:56:11;;;;;;;264.35;23.70;;;14.40;90.30;;;;;;5087771;28;20030;-70
2021/10/09 02:58:37;;;;;;;358.90;24.45;;;14.40;90.40;;;;;;5097338;28;20051;-71
2021/10/09 03:01:02;;;;;;;194.70;21.05;;;14.40;90.50;;;;;;5087653;28;20016;-70
2021/10/09 03:03:28;;;;;;;276.20;23.13;;;14.40;90.60;;;;;;5092113;28;20077;-71
2021/10/09 03:05:54;;;;;;;300.77;21.73;;;14.40;90.70;;;;;;5089989;28;20491;-70
2021/10/09 03:08:20;;;;;;;239.00;24.48;;;14.40;90.80;;;;;;5073201;28;20031;-71
2021/10/09 03:10:46;;;;;;;299.38;22.40;;;14.50;90.80;;;;;;5074078;28;20076;-72
2021/10/09 03:13:11;;;;;;;231.02;22.88;;;14.50;90.90;;;;;;5092095;28;20024;-71
2021/10/09 03:15:40;;;;;;;278.55;20.98;;;14.50;91.00;;;;;;5078410;28;20032;-71
2021/10/09 03:18:06;;;;;;;243.45;21.77;;;14.50;90.90;;;;;;5090788;28;20016;-71
2021/10/09 03:20:31;;;;;;;148.35;18.80;;;14.50;91.00;;;;;;5093826;28;20081;-71
2021/10/09 03:22:58;;;;;;;185.68;23.08;;;14.50;90.90;;;;;;5090474;28;20035;-71
2021/10/09 03:25:23;;;;;;;279.92;23.63;;;14.50;91.00;;;;;;5098666;28;20099;-70
2021/10/09 03:27:49;;;;;;;170.43;20.63;;;14.50;91.00;;;;;;5092245;28;20032;-71
2021/10/09 03:30:19;;;;;;;214.85;21.50;;;14.50;91.00;;;;;;5090268;28;20020;-71
2021/10/09 03:32:45;;;;;;;261.17;22.80;;;14.50;91.10;;;;;;5082732;28;20029;-71
2021/10/09 03:35:11;;;;;;;150.73;21.75;;;14.60;91.00;;;;;;5088482;28;20020;-71
2021/10/09 03:37:39;;;;;;;157.20;23.48;;;14.50;90.80;;;;;;5091873;28;20068;-71
2021/10/09 03:40:09;;;;;;;105.70;20.15;;;14.50;90.90;;;;;;5091248;28;20040;-71
2021/10/09 03:42:39;;;;;;;106.53;25.83;;;14.60;90.80;;;;;;5082738;28;20117;-71
2021/10/09 03:45:14;;;;;;;50.40;21.98;;;14.60;90.80;;;;;;5077185;28;20048;-71
2021/10/09 03:52:44;;;;;;;67.70;26.45;;;14.50;90.60;;;;;;5086512;28;20086;-71
2021/10/09 03:55:13;;;;;;;51.35;23.23;;;14.50;90.70;;;;;;5084488;28;20028;-71
2021/10/09 03:57:43;;;;;;;60.38;24.13;;;14.50;90.70;;;;;;5087222;28;20082;-71
2021/10/09 04:00:11;;;;;;;63.63;23.30;;;14.50;90.70;;;;;;5072758;28;20116;-71
2021/10/09 04:02:41;;;;;;;61.40;26.15;;;14.50;90.70;;;;;;5077960;28;20455;-71
2021/10/09 04:05:10;;;;;;;53.13;24.45;;;14.50;90.70;;;;;;5081397;28;20028;-71
2021/10/09 04:07:36;;;;;;;49.15;24.40;;;14.50;90.60;;;;;;5072068;28;20033;-71
2021/10/09 04:10:03;;;;;;;55.78;24.35;;;14.50;90.50;;;;;;5091682;28;20620;-71
2021/10/09 04:12:29;;;;;;;48.17;22.17;;;14.50;90.40;;;;;;5078568;28;20036;-71
2021/10/09 04:14:56;;;;;;;53.67;26.27;;;14.50;90.30;;;;;;5090760;28;20058;-71
2021/10/09 04:17:25;;;;;;;54.30;26.50;;;14.50;90.40;;;;;;5080319;28;20056;-71
2021/10/09 04:19:51;;;;;;;53.20;27.35;;;14.50;90.40;;;;;;5075376;28;20045;-71
2021/10/09 04:22:17;;;;;;;48.20;25.95;;;14.50;90.40;;;;;;5090082;28;20032;-71
2021/10/09 04:24:43;;;;;;;47.40;23.55;;;14.50;90.40;;;;;;5090480;28;20151;-71
2021/10/09 04:27:09;;;;;;;46.40;23.58;;;14.50;90.40;;;;;;5083688;28;20119;-71
2021/10/09 04:29:35;;;;;;;44.33;24.17;;;14.50;90.40;;;;;;5084695;28;20054;-72
2021/10/09 04:32:01;;;;;;;48.67;25.52;;;14.50;90.40;;;;;;5088937;28;20052;-71
2021/10/09 04:34:27;;;;;;;47.42;24.95;;;14.50;90.40;;;;;;5080018;28;20531;-71
2021/10/09 04:36:58;;;;;;;43.63;23.30;;;14.50;90.50;;;;;;5085892;28;20050;-71
2021/10/09 04:39:25;;;;;;;48.88;26.20;;;14.50;90.40;;;;;;5090926;28;20031;-71
2021/10/09 04:41:51;;;;;;;47.05;23.95;;;14.50;90.40;;;;;;5090359;28;20048;-71
2021/10/09 04:44:18;;;;;;;42.22;21.42;;;14.50;90.30;;;;;;5084785;28;20429;-71
2021/10/09 04:46:45;;;;;;;45.08;24.58;;;14.50;90.30;;;;;;5095851;28;20178;-71
2021/10/09 04:49:11;;;;;;;47.72;24.33;;;14.50;90.30;;;;;;5080473;28;20120;-71
2021/10/09 04:51:38;;;;;;;46.67;22.90;;;14.50;90.30;;;;;;5073170;28;20036;-72
2021/10/09 04:54:04;;;;;;;55.45;25.95;;;14.50;90.30;;;;;;5086879;28;20490;-72
2021/10/09 04:56:30;;;;;;;42.13;21.35;;;14.50;90.30;;;;;;5080523;28;20039;-71
2021/10/09 04:58:57;;;;;;;38.22;20.38;;;14.50;90.40;;;;;;5084398;28;20376;-71
2021/10/09 05:01:23;;;;;;;49.88;24.13;;;14.50;90.40;;;;;;5078079;28;20016;-71
2021/10/09 05:03:49;;;;;;;47.20;23.45;;;14.50;90.30;;;;;;5088721;28;20031;-71
2021/10/09 05:06:15;;;;;;;47.97;21.85;;;14.50;90.30;;;;;;5085250;28;20037;-71
2021/10/09 05:08:41;;;;;;;37.88;19.58;;;14.50;90.20;;;;;;5075778;28;20024;-71
2021/10/09 05:11:09;;;;;;;45.67;20.02;;;14.50;90.20;;;;;;5083859;28;20028;-71
2021/10/09 05:13:34;;;;;;;47.40;24.33;;;14.50;90.20;;;;;;5073479;28;20112;-71
2021/10/09 05:16:03;;;;;;;50.58;26.20;;;14.50;90.10;;;;;;5082365;28;20115;-71
2021/10/09 05:18:29;;;;;;;49.47;24.42;;;14.50;90.20;;;;;;5087333;28;20065;-71
2021/10/09 05:20:55;;;;;;;54.13;26.77;;;14.50;90.20;;;;;;5080184;28;20465;-71
2021/10/09 05:23:24;;;;;;;49.83;25.77;;;14.50;90.30;;;;;;5072307;28;20024;-71
2021/10/09 05:25:54;;;;;;;50.90;26.05;;;14.50;90.30;;;;;;5092431;28;20123;-71
2021/10/09 05:28:42;;;;;;;51.38;25.20;;;14.50;90.60;;;;;;5089437;28;20015;-71
2021/10/09 05:31:11;;;;;;;49.35;23.77;;;14.40;90.30;;;;;;5090103;28;20058;-71
2021/10/09 05:33:43;;;;;;;54.33;25.58;;;14.50;90.20;;;;;;5090060;28;20016;-71
2021/10/09 05:36:08;;;;;;;57.05;27.50;;;14.50;90.20;;;;;;5076870;28;20499;-71
2021/10/09 05:38:36;;;;;;;59.35;27.55;;;14.50;90.20;;;;;;5083498;28;20052;-71
2021/10/09 05:41:02;;;;;;;44.63;22.10;;;14.40;90.20;;;;;;5087349;28;20044;-72
2021/10/09 05:43:33;;;;;;;57.20;26.27;;;14.50;90.20;;;;;;5085403;28;20410;-71
2021/10/09 05:45:59;;;;;;;61.10;28.63;;;14.50;90.10;;;;;;5089714;28;20036;-71
2021/10/09 05:48:27;;;;;;;52.78;27.50;;;14.50;90.10;;;;;;5077811;28;20055;-71
2021/10/09 05:53:50;;;;;;;58.53;30.13;;;14.50;90.10;;;;;;5091798;28;20028;-71
2021/10/09 05:56:40;;;;;;;67.57;29.42;;;14.50;90.10;;;;;;5080769;28;20082;-71
2021/10/09 05:59:34;;;;;;;67.53;30.83;;;14.40;90.10;;;;;;5076457;28;20028;-71
2021/10/09 06:43:15;;;;;;;62.30;29.13;;;14.30;89.30;;;;;;5091073;28;20028;-72
2021/10/09 06:48:55;;;;;;;61.47;27.70;;;14.30;89.30;;;;;;5086302;28;20031;-71
2021/10/09 06:59:39;;;;;;;57.65;26.40;;;14.30;89.20;;;;;;5089395;28;20059;-70
2021/10/09 07:02:04;;;;;;;57.38;26.20;;;14.30;89.20;;;;;;5079047;28;20016;-71
2021/10/09 07:04:31;;;;;;;60.53;29.67;;;14.30;89.30;;;;;;5086852;28;20467;-72
2021/10/09 07:07:02;;;;;;;58.45;29.40;;;14.30;89.30;;;;;;5087553;28;20035;-72
2021/10/09 07:09:47;;;;;;;65.03;26.40;;;14.30;90.00;;;;;;5083061;28;20386;-72
2021/10/09 07:12:17;;;;;;;49.75;23.98;;;14.30;89.40;;;;;;5075056;28;20529;-71
2021/10/09 07:14:46;;;;;;;53.83;23.83;;;14.30;89.40;;;;;;5079454;28;20044;-71
2021/10/09 07:17:13;;;;;;;54.17;26.38;;;14.30;89.30;;;;;;5078534;28;20085;-71
2021/10/09 07:19:38;;;;;;;77.28;31.60;;;14.20;89.20;;;;;;5078783;28;20029;-72
2021/10/09 07:22:04;;;;;;;60.88;29.38;;;14.20;89.10;;;;;;5076869;28;20028;-72
2021/10/09 07:24:32;;;;;;;61.05;27.55;;;14.30;89.30;;;;;;5079324;28;20502;-72
2021/10/09 07:26:58;;;;;;;57.45;24.25;;;14.20;89.20;;;;;;5078636;28;20051;-72
2021/10/09 07:29:23;;;;;;;62.17;29.27;;;14.20;89.20;;;;;;5080185;28;20024;-72
2021/10/09 07:31:49;;;;;;;50.42;25.92;;;14.20;89.30;;;;;;5080130;28;20033;-72
2021/10/09 07:34:16;;;;;;;61.95;29.30;;;14.20;89.20;;;;;;5082189;28;20119;-72
2021/10/09 07:36:42;;;;;;;58.75;24.13;;;14.20;89.30;;;;;;5081453;28;20032;-72
2021/10/09 07:39:07;;;;;;;61.00;27.85;;;14.30;89.20;;;;;;5079841;28;20028;-75
2021/10/09 07:41:33;;;;;;;57.10;28.42;;;14.30;89.20;;;;;;5079382;28;20118;-72
2021/10/09 07:43:59;;;;;;;57.80;26.48;;;14.20;89.10;;;;;;5082023;28;20415;-72
2021/10/09 07:46:24;;;;;;;64.90;30.98;;;14.30;89.80;;;;;;5079836;28;20040;-72
2021/10/09 07:48:50;;;;;;;51.45;23.58;;;14.20;89.00;;;;;;5079633;28;20039;-72
2021/10/09 07:51:16;;;;;;;66.53;31.33;;;14.20;88.90;;;;;;5083866;28;20028;-72
2021/10/09 07:53:41;;;;;;;58.38;27.80;;;14.20;88.80;;;;;;5081008;28;20028;-72
2021/10/09 07:56:07;;;;;;;58.22;30.30;;;14.20;88.80;;;;;;5075908;28;20025;-73
2021/10/09 07:58:33;;;;;;;53.63;24.65;;;14.20;88.80;;;;;;5073411;28;20020;-72
2021/10/09 08:00:58;;;;;;;53.58;26.58;;;14.20;88.80;;;;;;5076283;28;20036;-72
2021/10/09 08:03:25;;;;;;;51.80;27.10;;;14.20;88.70;;;;;;5074579;28;20028;-72
2021/10/09 08:05:52;;;;;;;57.15;25.00;;;14.20;88.60;;;;;;5080305;28;20029;-72
2021/10/09 08:08:19;;;;;;;68.15;28.50;;;14.20;88.60;;;;;;5074305;28;20068;-72
2021/10/09 08:10:47;;;;;;;55.53;26.65;;;14.20;88.70;;;;;;5074777;28;20013;-71
2021/10/09 08:13:16;;;;;;;44.30;21.17;;;14.20;88.60;;;;;;5073065;28;20387;-72
2021/10/09 08:15:43;;;;;;;41.17;20.88;;;14.20;88.60;;;;;;5077779;28;20025;-73
2021/10/09 08:18:09;;;;;;;55.05;28.45;;;14.20;88.70;;;;;;5076029;28;20028;-73
2021/10/09 08:20:36;;;;;;;60.10;27.73;;;14.30;88.60;;;;;;5073882;28;20036;-72
2021/10/09 08:23:06;;;;;;;56.53;27.20;;;14.30;88.70;;;;;;5072709;28;20032;-72
2021/10/09 08:41:13;;;;;;;52.85;27.60;;;14.30;88.40;;;;;;5076676;28;20048;-72
2021/10/09 08:43:43;;;;;;;53.00;27.50;;;14.30;88.40;;;;;;5078043;28;20040;-75
2021/10/09 08:46:09;;;;;;;54.70;27.45;;;14.40;88.50;;;;;;5075923;28;20368;-72
2021/10/09 08:48:41;;;;;;;50.83;28.33;;;14.30;88.30;;;;;;5071321;28;20036;-72
2021/10/09 08:51:07;;;;;;;52.95;25.30;;;14.40;88.40;;;;;;5075193;28;20150;-72
2021/10/09 08:53:37;;;;;;;55.53;26.52;;;14.30;88.30;;;;;;5075310;28;20555;-72
2021/10/09 08:56:03;;;;;;;56.92;30.20;;;14.30;88.30;;;;;;5077028;28;20036;-72
2021/10/09 08:58:41;;;;;;;55.00;28.60;;;14.30;88.30;;;;;;5068747;28;20043;-72
2021/10/09 09:01:24;;;;;;;46.17;24.55;;;14.40;88.20;;;;;;5069985;28;20032;-72
2021/10/09 09:25:17;;;;;;;46.67;25.42;;;14.40;88.10;;;;;;5078118;28;20035;-72
2021/10/09 09:35:02;;;;;;;46.33;22.25;;;14.60;87.60;;;;;;5093926;28;20039;-71
2021/10/09 09:40:04;;;;;;;46.38;22.48;;;14.60;87.10;;;;;;5083212;28;20048;-70
2021/10/09 09:42:29;;;;;;;46.40;24.73;;;14.60;87.10;;;;;;5094703;28;20039;-71
2021/10/09 09:44:59;;;;;;;49.63;23.77;;;14.60;87.20;;;;;;5082336;28;20126;-71
2021/10/09 09:47:35;;;;;;;51.60;23.67;;;14.60;87.30;;;;;;5079058;28;20040;-71
2021/10/09 09:50:11;;;;;;;43.88;23.02;;;14.70;87.30;;;;;;5078394;28;20039;-71
2021/10/09 09:52:39;;;;;;;42.75;22.02;;;14.70;87.10;;;;;;5086097;28;20035;-71
2021/10/09 09:55:07;;;;;;;40.55;21.55;;;14.80;87.30;;;;;;5085096;28;20024;-73
2021/10/09 09:57:34;;;;;;;47.58;23.92;;;14.70;86.70;;;;;;5089075;28;20035;-71
2021/10/09 10:00:11;;;;;;;39.13;20.02;;;14.80;86.80;;;;;;5092585;28;20115;-73
2021/10/09 10:02:44;;;;;;;35.65;19.77;;;14.90;86.70;;;;;;5077025;28;20036;-75
2021/10/09 10:05:12;;;;;;;47.85;21.05;;;14.90;86.40;;;;;;5086611;28;20461;-73
2021/10/09 10:07:39;;;;;;;32.38;16.92;;;14.90;86.70;;;;;;5079455;28;20048;-70
2021/10/09 10:10:06;;;;;;;31.08;17.90;;;14.90;86.60;;;;;;5084390;28;20035;-71
2021/10/09 10:12:32;;;;;;;34.92;17.75;;;14.90;86.30;;;;;;5093231;28;20127;-71
2021/10/09 10:14:59;;;;;;;31.15;15.68;;;15.00;86.40;;;;;;5087810;28;20423;-71
2021/10/09 10:17:46;;;;;;;33.80;17.25;;;15.00;86.10;;;;;;5078162;28;20082;-71
2021/10/09 10:20:17;;;;;;;35.92;18.50;;;15.10;85.90;;;;;;5083023;28;20395;-71
2021/10/09 10:22:42;;;;;;;31.30;16.05;;;15.10;86.00;;;;;;5085380;28;20501;-71
2021/10/09 10:25:17;;;;;;;31.63;16.77;;;15.10;85.80;;;;;;5086163;28;20036;-71
2021/10/09 10:27:44;;;;;;;39.47;17.05;;;15.10;85.40;;;;;;5085185;28;20122;-71
2021/10/09 10:30:16;;;;;;;38.03;16.13;;;15.20;85.50;;;;;;5087124;28;20390;-71
2021/10/09 10:32:53;;;;;;;38.53;16.10;;;15.20;85.20;;;;;;5083372;28;20066;-71
2021/10/09 10:35:34;;;;;;;32.33;14.85;;;15.20;85.00;;;;;;5087495;28;20372;-71
2021/10/09 10:38:17;;;;;;;30.58;14.05;;;15.30;85.20;;;;;;5079940;28;20028;-72
2021/10/09 10:40:58;;;;;;;28.00;15.02;;;15.30;85.10;;;;;;5082324;28;20079;-79
2021/10/09 10:43:36;;;;;;;30.55;14.05;;;15.30;85.60;;;;;;5092551;28;20028;-79
2021/10/09 10:46:07;;;;;;;29.48;13.27;;;15.40;85.00;;;;;;5075572;28;20028;-72
2021/10/09 10:48:42;;;;;;;30.63;14.63;;;15.40;84.90;;;;;;5078621;28;20456;-72
2021/10/09 10:51:14;;;;;;;20.92;11.32;;;15.50;84.50;;;;;;5084041;28;20457;-72
2021/10/09 10:53:58;;;;;;;29.17;13.80;;;15.50;84.40;;;;;;5091014;28;20062;-72
2021/10/09 10:56:24;;;;;;;;;;;15.50;84.50;;;;;;5084607;28;20032;-71
2021/10/09 10:58:49;;;;;;;27.35;15.20;;;15.50;84.90;;;;;;5091261;28;20097;-71
2021/10/09 11:01:22;;;;;;;29.85;14.80;;;15.60;84.60;;;;;;5077879;28;20032;-72
2021/10/09 11:03:56;;;;;;;32.70;13.85;;;15.60;84.20;;;;;;5074692;28;20029;-71
2021/10/09 11:06:24;;;;;;;28.98;10.95;;;15.60;83.80;;;;;;5076773;28;20400;-71
2021/10/09 11:08:51;;;;;;;30.02;13.48;;;15.70;83.90;;;;;;5080170;28;20399;-78
2021/10/09 11:11:31;;;;;;;24.95;12.35;;;15.70;83.90;;;;;;5081253;28;20120;-73
2021/10/09 11:13:58;;;;;;;30.60;13.93;;;15.80;84.20;;;;;;5077044;28;20123;-72
2021/10/09 11:16:31;;;;;;;31.55;15.45;;;15.80;83.30;;;;;;5073050;28;20472;-72
2021/10/09 11:18:57;;;;;;;25.30;13.98;;;15.80;82.70;;;;;;5075350;28;20036;-71
2021/10/09 11:21:23;;;;;;;27.58;14.38;;;15.90;82.60;;;;;;5075170;28;20035;-65
2021/10/09 11:23:54;;;;;;;30.05;14.02;;;15.90;82.60;;;;;;5074560;28;20028;-71
2021/10/09 11:26:20;;;;;;;29.23;14.25;;;15.90;82.10;;;;;;5072034;28;20506;-71
2021/10/09 11:28:46;;;;;;;31.55;13.32;;;15.90;82.30;;;;;;5079063;28;20039;-71
2021/10/09 11:31:23;;;;;;;19.55;12.70;;;16.00;81.90;;;;;;5074318;28;20028;-72
2021/10/09 11:33:54;;;;;;;27.38;14.68;;;16.10;81.90;;;;;;5073597;28;20137;-72
2021/10/09 11:36:22;;;;;;;31.40;13.18;;;16.00;81.90;;;;;;5076480;28;20352;-72
2021/10/09 11:39:05;;;;;;;25.77;13.13;;;16.10;81.60;;;;;;5073574;28;20034;-72
2021/10/09 11:41:31;;;;;;;23.13;11.85;;;16.20;81.50;;;;;;5076197;28;20040;-73
2021/10/09 11:44:04;;;;;;;24.85;11.50;;;16.20;81.30;;;;;;5080783;28;20115;-73
2021/10/09 11:54:50;;;;;;;27.30;10.98;;;16.30;80.00;;;;;;5079955;28;20032;-70
2021/10/09 11:57:15;;;;;;;22.52;10.70;;;16.40;80.00;;;;;;5087710;28;20040;-74
2021/10/09 11:59:42;;;;;;;25.98;11.00;;;16.40;80.50;;;;;;5073860;28;20028;-76
2021/10/09 12:02:11;;;;;;;29.95;11.20;;;16.40;79.30;;;;;;5076474;28;20047;-76
2021/10/09 12:04:36;;;;;;;17.77;9.25;;;16.40;79.10;;;;;;5072934;28;20079;-74
2021/10/09 12:07:09;;;;;;;22.45;10.48;;;16.50;79.20;;;;;;5075768;28;20421;-75
2021/10/09 12:09:50;;;;;;;23.63;10.73;;;16.50;78.60;;;;;;5079933;28;20020;-76
2021/10/09 12:12:20;;;;;;;18.85;10.32;;;16.50;77.70;;;;;;5091494;28;20407;-76
2021/10/09 12:14:47;;;;;;;24.98;7.60;;;16.60;77.30;;;;;;5080145;28;20383;-75
2021/10/09 12:17:14;;;;;;;20.95;11.07;;;16.60;77.50;;;;;;5078579;28;20028;-76
2021/10/09 12:19:40;;;;;;;23.83;9.70;;;16.60;76.90;;;;;;5090117;28;20103;-76
2021/10/09 12:22:11;;;;;;;22.73;9.15;;;16.70;76.20;;;;;;5090686;28;20032;-76
2021/10/09 12:24:53;;;;;;;14.23;7.70;;;16.70;76.30;;;;;;5083376;28;20051;-76
2021/10/09 12:27:28;;;;;;;16.40;8.10;;;16.70;76.30;;;;;;5078300;28;20174;-76
2021/10/09 12:29:58;;;;;;;19.45;8.57;;;16.70;76.40;;;;;;5081018;28;20359;-76
2021/10/09 12:32:27;;;;;;;21.55;9.10;;;16.80;75.30;;;;;;5072444;28;20454;-74
2021/10/09 12:35:16;;;;;;;22.52;8.18;;;16.80;75.60;;;;;;5077444;28;20591;-81
2021/10/09 12:37:58;;;;;;;17.45;8.00;;;16.80;76.00;;;;;;5084410;28;20099;-73
2021/10/09 12:40:26;;;;;;;18.60;8.48;;;16.90;75.20;;;;;;5084792;28;20067;-72
2021/10/09 12:42:55;;;;;;;23.35;9.48;;;16.90;74.90;;;;;;5072847;28;20032;-73
2021/10/09 12:45:23;;;;;;;22.52;9.95;;;16.90;74.90;;;;;;5070982;28;20382;-72
2021/10/09 12:47:49;;;;;;;24.38;8.75;;;17.00;74.70;;;;;;5072727;28;20073;-70
2021/10/09 12:50:15;;;;;;;17.63;8.73;;;17.00;74.40;;;;;;5071234;28;20059;-72
2021/10/09 12:52:42;;;;;;;16.42;8.63;;;17.00;73.70;;;;;;5076284;28;20036;-73
2021/10/09 12:55:10;;;;;;;25.67;9.25;;;17.00;73.40;;;;;;5074492;28;20028;-72
2021/10/09 12:57:47;;;;;;;21.30;8.75;;;17.10;73.00;;;;;;5072545;28;20029;-72
2021/10/09 13:00:13;;;;;;;16.73;8.20;;;17.10;72.70;;;;;;5073586;28;20526;-71
2021/10/09 13:02:42;;;;;;;16.38;8.25;;;17.20;72.30;;;;;;5086260;28;20051;-73
2021/10/09 13:05:08;;;;;;;15.52;7.07;;;17.20;71.80;;;;;;5085131;28;20456;-77
2021/10/09 13:07:33;;;;;;;17.00;7.93;;;17.20;73.40;;;;;;5090122;28;20047;-74
2021/10/09 13:09:59;;;;;;;22.58;8.73;;;17.20;76.60;;;;;;5087501;28;20024;-71
2021/10/09 13:12:25;;;;;;;17.88;7.88;;;17.30;75.60;;;;;;5092032;28;20020;-71
2021/10/09 13:14:50;;;;;;;17.45;7.63;;;17.30;74.10;;;;;;5091230;28;20024;-71
2021/10/09 13:17:16;;;;;;;17.50;7.70;;;17.30;73.00;;;;;;5089841;28;20028;-71
2021/10/09 13:19:41;;;;;;;17.45;8.30;;;17.40;72.60;;;;;;5074032;28;20028;-71
2021/10/09 13:22:07;;;;;;;28.00;7.40;;;17.40;71.70;;;;;;5072682;28;20029;-71
2021/10/09 13:24:33;;;;;;;22.75;7.80;;;17.40;71.80;;;;;;5089395;28;20073;-72
2021/10/09 13:26:58;;;;;;;18.02;7.90;;;17.40;72.20;;;;;;5079641;28;20454;-73
2021/10/09 13:29:24;;;;;;;15.32;8.65;;;17.50;72.50;;;;;;5079686;28;20020;-72
2021/10/09 13:31:49;;;;;;;19.15;8.82;;;17.50;71.40;;;;;;5076538;28;20480;-73
2021/10/09 13:34:15;;;;;;;21.77;8.13;;;17.50;71.50;;;;;;5085813;28;20020;-73
2021/10/09 13:36:41;;;;;;;19.83;8.25;;;17.60;71.40;;;;;;5086041;28;20470;-77
2021/10/09 13:39:06;;;;;;;27.45;8.30;;;17.60;71.10;;;;;;5073789;28;20055;-77
2021/10/09 13:41:32;;;;;;;16.67;7.93;;;17.70;71.00;;;;;;5080135;28;20047;-71
2021/10/09 13:43:58;;;;;;;21.05;7.97;;;17.70;71.40;;;;;;5073699;28;20125;-72
2021/10/09 13:46:27;;;;;;;17.33;8.07;;;17.70;72.80;;;;;;5073686;28;20364;-68
2021/10/09 13:48:54;;;;;;;22.08;8.05;;;17.70;72.00;;;;;;5073870;28;20068;-72
2021/10/09 13:51:23;;;;;;;20.50;7.78;;;17.70;71.60;;;;;;5073703;28;20386;-72
2021/10/09 13:53:48;;;;;;;19.17;7.78;;;17.80;71.80;;;;;;5073982;28;20032;-72
2021/10/09 13:56:14;;;;;;;16.02;7.70;;;17.80;71.40;;;;;;5073844;28;20033;-72
2021/10/09 13:58:40;;;;;;;19.13;8.05;;;17.80;71.50;;;;;;5074747;28;20082;-72
2021/10/09 14:01:06;;;;;;;23.17;8.90;;;17.80;71.10;;;;;;5072510;28;20378;-72
2021/10/09 14:03:34;;;;;;;19.23;9.63;;;17.80;71.00;;;;;;5078065;28;20062;-72
2021/10/09 14:06:00;;;;;;;23.25;8.38;;;17.90;70.60;;;;;;5077461;28;20032;-72
2021/10/09 14:08:26;;;;;;;24.60;8.43;;;17.90;71.10;;;;;;5073706;28;20039;-72
2021/10/09 14:10:55;;;;;;;17.15;7.95;;;17.90;71.40;;;;;;5071741;28;20534;-72
2021/10/09 14:13:22;;;;;;;24.85;8.82;;;17.90;71.30;;;;;;5076793;28;20028;-72
2021/10/09 14:15:48;;;;;;;16.08;8.45;;;18.00;71.30;;;;;;5084898;28;20044;-72
2021/10/09 14:18:16;;;;;;;19.67;8.30;;;17.90;70.60;;;;;;5083935;28;20075;-72
2021/10/09 14:20:53;;;;;;;22.60;8.30;;;18.00;70.40;;;;;;5075156;28;20051;-72
2021/10/09 14:23:21;;;;;;;15.20;8.10;;;18.00;70.20;;;;;;5083775;28;20055;-71
2021/10/09 14:25:48;;;;;;;20.25;8.40;;;18.10;70.40;;;;;;5092350;28;20040;-70
2021/10/09 14:28:15;;;;;;;21.67;7.93;;;18.10;70.40;;;;;;5090512;28;20064;-72
2021/10/09 14:30:42;;;;;;;24.27;8.43;;;18.10;70.10;;;;;;5087630;28;20070;-72
2021/10/09 14:33:08;;;;;;;19.27;8.70;;;18.10;70.40;;;;;;5079275;28;20356;-72
2021/10/09 14:35:36;;;;;;;20.35;8.25;;;18.20;71.10;;;;;;5077695;28;20056;-72
2021/10/09 14:38:04;;;;;;;20.15;8.57;;;18.20;70.40;;;;;;5062835;28;20024;-72
2021/10/09 14:40:30;;;;;;;21.70;9.05;;;18.10;70.50;;;;;;5087233;28;20083;-72